sensor_id;sensor_type;location;lat;lon;timestamp;temperature;humidity
46898;DHT22;32646;50.958;6.258;2023-02-18T00:00:18;10.60;99.90
46898;DHT22;32646;50.958;6.258;2023-02-18T00:02:45;10.60;99.90
46898;DHT22;32646;50.958;6.258;2023-02-18T00:05:13;10.50;99.90
46898;DHT22;32646;50.958;6.258;2023-02-18T00:07:41;10.50;99.90
46898;DHT22;32646;50.958;6.258;2023-02-18T00:10:11;10.50;99.90
46898;DHT22;32646;50.958;6.258;2023-02-18T00:12:38;10.50;99.90
46898;DHT22;32646;50.958;6.258;2023-02-18T00:15:05;10.50;99.90
46898;DHT22;32646;50.958;6.258;2023-02-18T00:17:32;10.50;99.90
46898;DHT22;32646;50.958;6.258;2023-02-18T00:19:58;10.50;99.90
46898;DHT22;32646;50.958;6.258;2023-02-18T00:22:25;10.50;99.90
46898;DHT22;32646;50.958;6.258;2023-02-18T00:24:52;10.50;99.90
46898;DHT22;32646;50.958;6.258;2023-02-18T00:27:18;10.50;99.90
46898;DHT22;32646;50.958;6.258;2023-02-18T00:29:45;10.40;99.90
46898;DHT22;32646;50.958;6.258;2023-02-18T00:32:11;10.50;99.90
46898;DHT22;32646;50.958;6.258;2023-02-18T00:34:38;10.50;99.90
46898;DHT22;32646;50.958;6.258;2023-02-18T00:37:05;10.50;99.90
46898;DHT22;32646;50.958;6.258;2023-02-18T00:39:31;10.40;99.90
46898;DHT22;32646;50.958;6.258;2023-02-18T00:41:58;10.50;99.90
46898;DHT22;32646;50.958;6.258;2023-02-18T00:44:24;10.50;99.90
46898;DHT22;32646;50.958;6.258;2023-02-18T00:46:51;10.40;99.90
46898;DHT22;32646;50.958;6.258;2023-02-18T00:49:17;10.40;99.90
46898;DHT22;32646;50.958;6.258;2023-02-18T00:51:45;10.40;99.90
46898;DHT22;32646;50.958;6.258;2023-02-18T00:54:12;10.40;99.90
46898;DHT22;32646;50.958;6.258;2023-02-18T00:56:38;10.30;99.90
46898;DHT22;32646;50.958;6.258;2023-02-18T00:59:05;10.30;99.90
46898;DHT22;32646;50.958;6.258;2023-02-18T01:01:32;10.30;99.90
46898;DHT22;32646;50.958;6.258;2023-02-18T01:03:58;10.30;99.90
46898;DHT22;32646;50.958;6.258;2023-02-18T01:06:25;10.20;99.90
46898;DHT22;32646;50.958;6.258;2023-02-18T01:08:51;10.20;99.90
46898;DHT22;32646;50.958;6.258;2023-02-18T01:11:18;10.20;99.90
46898;DHT22;32646;50.958;6.258;2023-02-18T01:13:45;10.20;99.90
46898;DHT22;32646;50.958;6.258;2023-02-18T01:16:11;10.20;99.90
46898;DHT22;32646;50.958;6.258;2023-02-18T01:18:39;10.20;99.90
46898;DHT22;32646;50.958;6.258;2023-02-18T01:21:07;10.20;99.90
46898;DHT22;32646;50.958;6.258;2023-02-18T01:23:35;10.20;99.90
46898;DHT22;32646;50.958;6.258;2023-02-18T01:26:02;10.30;99.90
46898;DHT22;32646;50.958;6.258;2023-02-18T01:28:28;10.30;99.90
46898;DHT22;32646;50.958;6.258;2023-02-18T01:30:55;10.20;99.90
46898;DHT22;32646;50.958;6.258;2023-02-18T01:33:22;10.30;99.90
46898;DHT22;32646;50.958;6.258;2023-02-18T01:35:48;10.30;99.90
46898;DHT22;32646;50.958;6.258;2023-02-18T01:38:15;10.30;99.90
46898;DHT22;32646;50.958;6.258;2023-02-18T01:40:47;10.30;99.90
46898;DHT22;32646;50.958;6.258;2023-02-18T01:43:14;10.30;99.90
46898;DHT22;32646;50.958;6.258;2023-02-18T01:49:00;10.40;99.90
46898;DHT22;32646;50.958;6.258;2023-02-18T01:51:30;10.40;99.90
46898;DHT22;32646;50.958;6.258;2023-02-18T01:54:26;10.40;99.90
46898;DHT22;32646;50.958;6.258;2023-02-18T01:57:03;10.50;99.90
46898;DHT22;32646;50.958;6.258;2023-02-18T01:59:38;10.40;99.90
46898;DHT22;32646;50.958;6.258;2023-02-18T02:02:08;10.40;99.90
46898;DHT22;32646;50.958;6.258;2023-02-18T02:04:36;10.40;99.90
46898;DHT22;32646;50.958;6.258;2023-02-18T02:07:04;10.50;99.90
46898;DHT22;32646;50.958;6.258;2023-02-18T02:09:31;10.50;99.90
46898;DHT22;32646;50.958;6.258;2023-02-18T02:15:00;10.50;99.90
46898;DHT22;32646;50.958;6.258;2023-02-18T02:20:45;10.50;99.90
46898;DHT22;32646;50.958;6.258;2023-02-18T02:26:29;10.60;99.90
46898;DHT22;32646;50.958;6.258;2023-02-18T02:35:08;10.60;99.90
46898;DHT22;32646;50.958;6.258;2023-02-18T02:38:06;10.60;99.90
46898;DHT22;32646;50.958;6.258;2023-02-18T02:41:14;10.70;99.90
46898;DHT22;32646;50.958;6.258;2023-02-18T02:44:01;10.80;99.90
46898;DHT22;32646;50.958;6.258;2023-02-18T02:49:09;10.70;99.90
46898;DHT22;32646;50.958;6.258;2023-02-18T02:54:21;10.70;99.90
46898;DHT22;32646;50.958;6.258;2023-02-18T02:56:49;10.70;99.90
46898;DHT22;32646;50.958;6.258;2023-02-18T02:59:21;10.60;99.90
46898;DHT22;32646;50.958;6.258;2023-02-18T03:02:34;10.60;99.90
46898;DHT22;32646;50.958;6.258;2023-02-18T03:10:35;10.40;99.90
46898;DHT22;32646;50.958;6.258;2023-02-18T03:22:06;10.20;99.90
46898;DHT22;32646;50.958;6.258;2023-02-18T03:24:43;10.20;99.90
46898;DHT22;32646;50.958;6.258;2023-02-18T03:29:56;10.10;99.90
46898;DHT22;32646;50.958;6.258;2023-02-18T03:32:26;10.10;99.90
46898;DHT22;32646;50.958;6.258;2023-02-18T03:34:59;10.10;99.90
46898;DHT22;32646;50.958;6.258;2023-02-18T03:37:29;10.10;99.90
46898;DHT22;32646;50.958;6.258;2023-02-18T03:39:58;10.10;99.90
46898;DHT22;32646;50.958;6.258;2023-02-18T03:42:27;10.10;99.90
46898;DHT22;32646;50.958;6.258;2023-02-18T03:44:54;10.00;99.90
46898;DHT22;32646;50.958;6.258;2023-02-18T03:47:21;10.00;99.90
46898;DHT22;32646;50.958;6.258;2023-02-18T03:49:48;10.10;99.90
46898;DHT22;32646;50.958;6.258;2023-02-18T03:52:15;10.00;99.90
46898;DHT22;32646;50.958;6.258;2023-02-18T03:54:41;10.00;99.90
46898;DHT22;32646;50.958;6.258;2023-02-18T03:57:08;10.00;99.90
46898;DHT22;32646;50.958;6.258;2023-02-18T03:59:34;10.00;99.90
46898;DHT22;32646;50.958;6.258;2023-02-18T04:02:01;9.90;99.90
46898;DHT22;32646;50.958;6.258;2023-02-18T04:04:29;9.90;99.90
46898;DHT22;32646;50.958;6.258;2023-02-18T04:06:55;9.90;99.90
46898;DHT22;32646;50.958;6.258;2023-02-18T04:09:22;9.90;99.90
46898;DHT22;32646;50.958;6.258;2023-02-18T04:11:48;9.90;99.90
46898;DHT22;32646;50.958;6.258;2023-02-18T04:14:15;9.90;99.90
46898;DHT22;32646;50.958;6.258;2023-02-18T04:16:42;9.90;99.90
46898;DHT22;32646;50.958;6.258;2023-02-18T04:19:08;9.90;99.90
46898;DHT22;32646;50.958;6.258;2023-02-18T04:21:35;9.80;99.90
46898;DHT22;32646;50.958;6.258;2023-02-18T04:24:02;9.90;99.90
46898;DHT22;32646;50.958;6.258;2023-02-18T04:26:29;9.90;99.90
46898;DHT22;32646;50.958;6.258;2023-02-18T04:28:55;9.90;99.90
46898;DHT22;32646;50.958;6.258;2023-02-18T04:31:22;9.90;99.90
46898;DHT22;32646;50.958;6.258;2023-02-18T04:33:48;10.00;99.90
46898;DHT22;32646;50.958;6.258;2023-02-18T04:36:15;9.90;99.90
46898;DHT22;32646;50.958;6.258;2023-02-18T04:38:42;10.00;99.90
46898;DHT22;32646;50.958;6.258;2023-02-18T04:41:08;10.00;99.90
46898;DHT22;32646;50.958;6.258;2023-02-18T04:43:35;10.00;99.90
46898;DHT22;32646;50.958;6.258;2023-02-18T04:46:01;10.10;99.90
46898;DHT22;32646;50.958;6.258;2023-02-18T04:48:28;10.10;99.90
46898;DHT22;32646;50.958;6.258;2023-02-18T04:50:55;10.10;99.90
46898;DHT22;32646;50.958;6.258;2023-02-18T04:53:22;10.10;99.90
46898;DHT22;32646;50.958;6.258;2023-02-18T04:55:49;10.10;99.90
46898;DHT22;32646;50.958;6.258;2023-02-18T04:58:17;10.10;99.90
46898;DHT22;32646;50.958;6.258;2023-02-18T05:00:44;10.10;99.90
46898;DHT22;32646;50.958;6.258;2023-02-18T05:03:11;10.10;99.90
46898;DHT22;32646;50.958;6.258;2023-02-18T05:05:37;10.10;99.90
46898;DHT22;32646;50.958;6.258;2023-02-18T05:08:04;10.00;99.90
46898;DHT22;32646;50.958;6.258;2023-02-18T05:10:31;10.00;99.90
46898;DHT22;32646;50.958;6.258;2023-02-18T05:12:57;10.00;99.90
46898;DHT22;32646;50.958;6.258;2023-02-18T05:15:24;9.90;99.90
46898;DHT22;32646;50.958;6.258;2023-02-18T05:17:51;9.90;99.90
46898;DHT22;32646;50.958;6.258;2023-02-18T05:20:17;9.90;99.90
46898;DHT22;32646;50.958;6.258;2023-02-18T05:22:44;9.80;99.90
46898;DHT22;32646;50.958;6.258;2023-02-18T05:25:10;9.90;99.90
46898;DHT22;32646;50.958;6.258;2023-02-18T05:27:37;9.90;99.90
46898;DHT22;32646;50.958;6.258;2023-02-18T05:30:05;9.90;99.90
46898;DHT22;32646;50.958;6.258;2023-02-18T05:32:32;9.90;99.90
46898;DHT22;32646;50.958;6.258;2023-02-18T05:34:59;9.80;99.90
46898;DHT22;32646;50.958;6.258;2023-02-18T05:37:25;9.80;99.90
46898;DHT22;32646;50.958;6.258;2023-02-18T05:39:52;9.80;99.90
46898;DHT22;32646;50.958;6.258;2023-02-18T05:42:18;9.80;99.90
46898;DHT22;32646;50.958;6.258;2023-02-18T05:44:45;9.80;99.90
46898;DHT22;32646;50.958;6.258;2023-02-18T05:47:12;9.80;99.90
46898;DHT22;32646;50.958;6.258;2023-02-18T05:49:40;9.80;99.90
46898;DHT22;32646;50.958;6.258;2023-02-18T05:52:07;9.80;99.90
46898;DHT22;32646;50.958;6.258;2023-02-18T05:54:35;9.80;99.90
46898;DHT22;32646;50.958;6.258;2023-02-18T05:57:02;9.80;99.90
46898;DHT22;32646;50.958;6.258;2023-02-18T05:59:30;9.80;99.90
46898;DHT22;32646;50.958;6.258;2023-02-18T06:01:56;9.80;99.90
46898;DHT22;32646;50.958;6.258;2023-02-18T06:04:23;9.90;99.90
46898;DHT22;32646;50.958;6.258;2023-02-18T06:06:50;10.00;99.90
46898;DHT22;32646;50.958;6.258;2023-02-18T06:09:16;10.00;99.90
46898;DHT22;32646;50.958;6.258;2023-02-18T06:11:43;10.10;99.90
46898;DHT22;32646;50.958;6.258;2023-02-18T06:14:09;10.10;99.90
46898;DHT22;32646;50.958;6.258;2023-02-18T06:16:36;10.20;99.90
46898;DHT22;32646;50.958;6.258;2023-02-18T06:19:03;10.20;99.90
46898;DHT22;32646;50.958;6.258;2023-02-18T06:21:29;10.20;99.90
46898;DHT22;32646;50.958;6.258;2023-02-18T06:23:56;10.20;99.90
46898;DHT22;32646;50.958;6.258;2023-02-18T06:26:23;10.20;99.90
46898;DHT22;32646;50.958;6.258;2023-02-18T06:28:49;10.20;99.90
46898;DHT22;32646;50.958;6.258;2023-02-18T06:31:16;10.20;99.90
46898;DHT22;32646;50.958;6.258;2023-02-18T06:33:43;10.30;99.90
46898;DHT22;32646;50.958;6.258;2023-02-18T06:36:11;10.40;99.90
46898;DHT22;32646;50.958;6.258;2023-02-18T06:38:40;10.20;99.90
46898;DHT22;32646;50.958;6.258;2023-02-18T06:41:07;10.20;99.90
46898;DHT22;32646;50.958;6.258;2023-02-18T06:43:34;10.20;99.90
46898;DHT22;32646;50.958;6.258;2023-02-18T06:46:02;10.10;99.90
46898;DHT22;32646;50.958;6.258;2023-02-18T06:48:29;10.10;99.90
46898;DHT22;32646;50.958;6.258;2023-02-18T06:50:56;10.00;99.90
46898;DHT22;32646;50.958;6.258;2023-02-18T06:53:23;10.10;99.90
46898;DHT22;32646;50.958;6.258;2023-02-18T06:55:49;10.10;99.90
46898;DHT22;32646;50.958;6.258;2023-02-18T06:58:16;10.10;99.90
46898;DHT22;32646;50.958;6.258;2023-02-18T07:00:43;10.10;99.90
46898;DHT22;32646;50.958;6.258;2023-02-18T07:03:12;10.10;99.90
46898;DHT22;32646;50.958;6.258;2023-02-18T07:05:38;10.10;99.90
46898;DHT22;32646;50.958;6.258;2023-02-18T07:08:05;10.10;99.90
46898;DHT22;32646;50.958;6.258;2023-02-18T07:10:31;10.10;99.90
46898;DHT22;32646;50.958;6.258;2023-02-18T07:12:58;10.00;99.90
46898;DHT22;32646;50.958;6.258;2023-02-18T07:15:24;9.90;99.90
46898;DHT22;32646;50.958;6.258;2023-02-18T07:17:51;9.90;99.90
46898;DHT22;32646;50.958;6.258;2023-02-18T07:20:19;9.90;99.90
46898;DHT22;32646;50.958;6.258;2023-02-18T07:22:46;10.00;99.90
46898;DHT22;32646;50.958;6.258;2023-02-18T07:25:13;10.00;99.90
46898;DHT22;32646;50.958;6.258;2023-02-18T07:27:40;9.90;99.90
46898;DHT22;32646;50.958;6.258;2023-02-18T07:30:07;9.80;99.90
46898;DHT22;32646;50.958;6.258;2023-02-18T07:32:34;9.60;99.90
46898;DHT22;32646;50.958;6.258;2023-02-18T07:35:01;9.50;99.90
46898;DHT22;32646;50.958;6.258;2023-02-18T07:37:27;9.40;99.90
46898;DHT22;32646;50.958;6.258;2023-02-18T07:39:54;9.40;99.90
46898;DHT22;32646;50.958;6.258;2023-02-18T07:42:21;9.40;99.90
46898;DHT22;32646;50.958;6.258;2023-02-18T07:44:48;9.40;99.90
46898;DHT22;32646;50.958;6.258;2023-02-18T07:47:16;9.40;99.90
46898;DHT22;32646;50.958;6.258;2023-02-18T07:49:42;9.30;99.90
46898;DHT22;32646;50.958;6.258;2023-02-18T07:52:09;9.40;99.90
46898;DHT22;32646;50.958;6.258;2023-02-18T07:54:36;9.50;99.90
46898;DHT22;32646;50.958;6.258;2023-02-18T07:57:02;9.50;99.90
46898;DHT22;32646;50.958;6.258;2023-02-18T07:59:29;9.60;99.90
46898;DHT22;32646;50.958;6.258;2023-02-18T08:01:56;9.60;99.90
46898;DHT22;32646;50.958;6.258;2023-02-18T08:04:22;9.60;99.90
46898;DHT22;32646;50.958;6.258;2023-02-18T08:06:49;9.60;99.90
46898;DHT22;32646;50.958;6.258;2023-02-18T08:09:16;9.60;99.90
46898;DHT22;32646;50.958;6.258;2023-02-18T08:11:43;9.60;99.90
46898;DHT22;32646;50.958;6.258;2023-02-18T08:14:10;9.60;99.90
46898;DHT22;32646;50.958;6.258;2023-02-18T08:16:37;9.50;99.90
46898;DHT22;32646;50.958;6.258;2023-02-18T08:19:03;9.60;99.90
46898;DHT22;32646;50.958;6.258;2023-02-18T08:21:30;9.60;99.90
46898;DHT22;32646;50.958;6.258;2023-02-18T08:23:58;9.60;99.90
46898;DHT22;32646;50.958;6.258;2023-02-18T08:26:25;9.60;99.90
46898;DHT22;32646;50.958;6.258;2023-02-18T08:28:52;9.60;99.90
46898;DHT22;32646;50.958;6.258;2023-02-18T08:31:24;9.50;99.90
46898;DHT22;32646;50.958;6.258;2023-02-18T08:33:53;9.60;99.90
46898;DHT22;32646;50.958;6.258;2023-02-18T08:36:21;9.50;99.90
46898;DHT22;32646;50.958;6.258;2023-02-18T08:38:48;9.50;99.90
46898;DHT22;32646;50.958;6.258;2023-02-18T08:41:15;9.60;99.90
46898;DHT22;32646;50.958;6.258;2023-02-18T08:43:42;9.50;99.90
46898;DHT22;32646;50.958;6.258;2023-02-18T08:46:09;9.60;99.90
46898;DHT22;32646;50.958;6.258;2023-02-18T08:48:42;9.60;99.90
46898;DHT22;32646;50.958;6.258;2023-02-18T08:51:18;9.70;99.90
46898;DHT22;32646;50.958;6.258;2023-02-18T08:53:45;9.70;99.90
46898;DHT22;32646;50.958;6.258;2023-02-18T08:56:13;9.70;99.90
46898;DHT22;32646;50.958;6.258;2023-02-18T08:58:40;9.80;99.90
46898;DHT22;32646;50.958;6.258;2023-02-18T09:01:09;9.80;99.90
46898;DHT22;32646;50.958;6.258;2023-02-18T09:03:37;9.90;99.90
46898;DHT22;32646;50.958;6.258;2023-02-18T09:06:04;10.00;99.90
46898;DHT22;32646;50.958;6.258;2023-02-18T09:08:31;9.90;99.90
46898;DHT22;32646;50.958;6.258;2023-02-18T09:11:00;9.90;99.90
46898;DHT22;32646;50.958;6.258;2023-02-18T09:13:27;9.90;99.90
46898;DHT22;32646;50.958;6.258;2023-02-18T09:16:02;9.90;99.90
46898;DHT22;32646;50.958;6.258;2023-02-18T09:18:30;9.90;99.90
46898;DHT22;32646;50.958;6.258;2023-02-18T09:20:58;10.00;99.90
46898;DHT22;32646;50.958;6.258;2023-02-18T09:23:29;10.00;99.90
46898;DHT22;32646;50.958;6.258;2023-02-18T09:25:57;10.00;99.90
46898;DHT22;32646;50.958;6.258;2023-02-18T09:28:24;10.00;99.90
46898;DHT22;32646;50.958;6.258;2023-02-18T09:30:51;10.10;99.90
46898;DHT22;32646;50.958;6.258;2023-02-18T09:33:18;10.20;99.90
46898;DHT22;32646;50.958;6.258;2023-02-18T09:35:45;10.40;99.90
46898;DHT22;32646;50.958;6.258;2023-02-18T09:38:15;10.60;99.90
46898;DHT22;32646;50.958;6.258;2023-02-18T09:40:51;10.60;99.90
46898;DHT22;32646;50.958;6.258;2023-02-18T09:43:38;10.60;99.90
46898;DHT22;32646;50.958;6.258;2023-02-18T09:46:33;10.50;99.90
46898;DHT22;32646;50.958;6.258;2023-02-18T09:49:03;10.60;99.90
46898;DHT22;32646;50.958;6.258;2023-02-18T09:51:32;10.60;99.90
46898;DHT22;32646;50.958;6.258;2023-02-18T09:53:58;10.70;99.90
46898;DHT22;32646;50.958;6.258;2023-02-18T09:56:32;10.70;99.90
46898;DHT22;32646;50.958;6.258;2023-02-18T09:59:04;10.60;99.90
46898;DHT22;32646;50.958;6.258;2023-02-18T10:01:39;10.60;99.90
46898;DHT22;32646;50.958;6.258;2023-02-18T10:04:33;10.50;99.90
46898;DHT22;32646;50.958;6.258;2023-02-18T10:07:02;10.40;99.90
46898;DHT22;32646;50.958;6.258;2023-02-18T10:09:33;10.40;99.90
46898;DHT22;32646;50.958;6.258;2023-02-18T10:12:14;10.30;99.90
46898;DHT22;32646;50.958;6.258;2023-02-18T10:14:44;10.30;99.90
46898;DHT22;32646;50.958;6.258;2023-02-18T10:17:14;10.30;99.90
46898;DHT22;32646;50.958;6.258;2023-02-18T10:19:47;10.40;99.90
46898;DHT22;32646;50.958;6.258;2023-02-18T10:22:15;10.30;99.90
46898;DHT22;32646;50.958;6.258;2023-02-18T10:25:01;10.40;99.90
46898;DHT22;32646;50.958;6.258;2023-02-18T10:27:34;10.40;99.90
46898;DHT22;32646;50.958;6.258;2023-02-18T10:30:29;10.30;99.90
46898;DHT22;32646;50.958;6.258;2023-02-18T10:34:03;10.20;99.90
46898;DHT22;32646;50.958;6.258;2023-02-18T10:36:30;10.20;99.90
46898;DHT22;32646;50.958;6.258;2023-02-18T10:42:04;10.10;99.90
46898;DHT22;32646;50.958;6.258;2023-02-18T10:50:31;9.70;99.90
46898;DHT22;32646;50.958;6.258;2023-02-18T10:53:19;9.60;99.90
46898;DHT22;32646;50.958;6.258;2023-02-18T10:55:47;9.60;99.90
46898;DHT22;32646;50.958;6.258;2023-02-18T11:01:14;9.50;99.90
46898;DHT22;32646;50.958;6.258;2023-02-18T11:03:48;9.40;99.90
46898;DHT22;32646;50.958;6.258;2023-02-18T11:08:46;9.40;99.90
46898;DHT22;32646;50.958;6.258;2023-02-18T11:11:28;9.30;99.90
46898;DHT22;32646;50.958;6.258;2023-02-18T11:13:59;9.30;99.90
46898;DHT22;32646;50.958;6.258;2023-02-18T11:16:55;9.30;99.90
46898;DHT22;32646;50.958;6.258;2023-02-18T11:19:35;9.40;99.90
46898;DHT22;32646;50.958;6.258;2023-02-18T11:22:12;9.40;99.90
46898;DHT22;32646;50.958;6.258;2023-02-18T11:24:39;9.40;99.90
46898;DHT22;32646;50.958;6.258;2023-02-18T11:27:20;9.40;99.90
46898;DHT22;32646;50.958;6.258;2023-02-18T11:29:53;9.40;99.90
46898;DHT22;32646;50.958;6.258;2023-02-18T11:32:21;9.30;99.90
46898;DHT22;32646;50.958;6.258;2023-02-18T11:34:51;9.30;99.90
46898;DHT22;32646;50.958;6.258;2023-02-18T11:37:19;9.20;99.90
46898;DHT22;32646;50.958;6.258;2023-02-18T11:39:49;9.30;99.90
46898;DHT22;32646;50.958;6.258;2023-02-18T11:42:20;9.20;99.90
46898;DHT22;32646;50.958;6.258;2023-02-18T11:52:37;9.10;99.90
46898;DHT22;32646;50.958;6.258;2023-02-18T11:55:21;9.20;99.90
46898;DHT22;32646;50.958;6.258;2023-02-18T12:00:40;9.30;99.90
46898;DHT22;32646;50.958;6.258;2023-02-18T12:06:31;9.40;99.90
46898;DHT22;32646;50.958;6.258;2023-02-18T12:09:29;9.40;99.90
46898;DHT22;32646;50.958;6.258;2023-02-18T12:12:00;9.40;99.90
46898;DHT22;32646;50.958;6.258;2023-02-18T12:14:28;9.40;99.90
46898;DHT22;32646;50.958;6.258;2023-02-18T12:20:54;9.40;99.90
46898;DHT22;32646;50.958;6.258;2023-02-18T12:26:30;9.40;99.90
46898;DHT22;32646;50.958;6.258;2023-02-18T12:31:47;9.40;99.90
46898;DHT22;32646;50.958;6.258;2023-02-18T12:39:54;9.60;99.90
46898;DHT22;32646;50.958;6.258;2023-02-18T12:45:20;9.70;99.90
46898;DHT22;32646;50.958;6.258;2023-02-18T12:53:42;9.60;99.90
46898;DHT22;32646;50.958;6.258;2023-02-18T12:58:47;9.70;99.90
46898;DHT22;32646;50.958;6.258;2023-02-18T13:01:28;9.70;99.90
46898;DHT22;32646;50.958;6.258;2023-02-18T13:04:13;9.70;99.90
46898;DHT22;32646;50.958;6.258;2023-02-18T13:12:59;9.70;99.90
46898;DHT22;32646;50.958;6.258;2023-02-18T13:15:55;9.70;99.90
46898;DHT22;32646;50.958;6.258;2023-02-18T13:18:28;9.80;99.90
46898;DHT22;32646;50.958;6.258;2023-02-18T13:20:59;10.00;99.90
46898;DHT22;32646;50.958;6.258;2023-02-18T13:24:02;10.00;99.90
46898;DHT22;32646;50.958;6.258;2023-02-18T13:26:31;10.10;99.90
46898;DHT22;32646;50.958;6.258;2023-02-18T13:29:25;10.00;99.90
46898;DHT22;32646;50.958;6.258;2023-02-18T13:32:15;10.10;99.90
46898;DHT22;32646;50.958;6.258;2023-02-18T13:35:04;10.10;99.90
46898;DHT22;32646;50.958;6.258;2023-02-18T13:38:11;10.10;99.90
46898;DHT22;32646;50.958;6.258;2023-02-18T13:40:30;10.10;99.90
46898;DHT22;32646;50.958;6.258;2023-02-18T13:45:44;10.10;99.90
46898;DHT22;32646;50.958;6.258;2023-02-18T13:48:28;10.00;99.90
46898;DHT22;32646;50.958;6.258;2023-02-18T13:51:05;9.90;99.90
46898;DHT22;32646;50.958;6.258;2023-02-18T13:53:36;9.90;99.90
46898;DHT22;32646;50.958;6.258;2023-02-18T13:58:43;9.90;99.90
46898;DHT22;32646;50.958;6.258;2023-02-18T14:01:15;9.90;99.90
46898;DHT22;32646;50.958;6.258;2023-02-18T14:08:44;9.80;99.90
46898;DHT22;32646;50.958;6.258;2023-02-18T14:13:46;9.90;99.90
46898;DHT22;32646;50.958;6.258;2023-02-18T14:16:12;9.80;99.90
46898;DHT22;32646;50.958;6.258;2023-02-18T14:23:48;9.80;99.90
46898;DHT22;32646;50.958;6.258;2023-02-18T14:26:44;9.80;99.90
46898;DHT22;32646;50.958;6.258;2023-02-18T14:29:17;9.80;99.90
46898;DHT22;32646;50.958;6.258;2023-02-18T14:31:49;9.90;99.90
46898;DHT22;32646;50.958;6.258;2023-02-18T14:40:36;10.00;99.90
46898;DHT22;32646;50.958;6.258;2023-02-18T14:48:49;9.90;99.90
46898;DHT22;32646;50.958;6.258;2023-02-18T14:51:22;10.00;99.90
46898;DHT22;32646;50.958;6.258;2023-02-18T14:53:49;10.00;99.90
46898;DHT22;32646;50.958;6.258;2023-02-18T14:56:19;10.00;99.90
46898;DHT22;32646;50.958;6.258;2023-02-18T14:58:48;10.00;99.90
46898;DHT22;32646;50.958;6.258;2023-02-18T15:01:19;10.00;99.90
46898;DHT22;32646;50.958;6.258;2023-02-18T15:03:48;10.00;99.90
46898;DHT22;32646;50.958;6.258;2023-02-18T15:06:36;10.00;99.90
46898;DHT22;32646;50.958;6.258;2023-02-18T15:09:19;9.90;99.90
46898;DHT22;32646;50.958;6.258;2023-02-18T15:11:49;10.00;99.90
46898;DHT22;32646;50.958;6.258;2023-02-18T15:14:43;10.00;99.90
46898;DHT22;32646;50.958;6.258;2023-02-18T15:17:12;9.90;99.90
46898;DHT22;32646;50.958;6.258;2023-02-18T15:19:46;9.90;99.90
46898;DHT22;32646;50.958;6.258;2023-02-18T15:22:17;9.90;99.90
46898;DHT22;32646;50.958;6.258;2023-02-18T15:24:44;9.90;99.90
46898;DHT22;32646;50.958;6.258;2023-02-18T15:27:12;9.90;99.90
46898;DHT22;32646;50.958;6.258;2023-02-18T15:29:40;9.90;99.90
46898;DHT22;32646;50.958;6.258;2023-02-18T15:32:24;9.90;99.90
46898;DHT22;32646;50.958;6.258;2023-02-18T15:35:01;9.80;99.90
46898;DHT22;32646;50.958;6.258;2023-02-18T15:37:29;9.90;99.90
46898;DHT22;32646;50.958;6.258;2023-02-18T15:39:56;9.90;99.90
46898;DHT22;32646;50.958;6.258;2023-02-18T15:44:56;9.90;99.90
46898;DHT22;32646;50.958;6.258;2023-02-18T15:47:23;9.90;99.90
46898;DHT22;32646;50.958;6.258;2023-02-18T15:49:56;9.90;99.90
46898;DHT22;32646;50.958;6.258;2023-02-18T15:52:31;9.90;99.90
46898;DHT22;32646;50.958;6.258;2023-02-18T15:55:14;9.90;99.90
46898;DHT22;32646;50.958;6.258;2023-02-18T15:57:43;9.90;99.90
46898;DHT22;32646;50.958;6.258;2023-02-18T16:00:19;9.90;99.90
46898;DHT22;32646;50.958;6.258;2023-02-18T16:05:36;9.90;99.90
46898;DHT22;32646;50.958;6.258;2023-02-18T16:08:27;9.90;99.90
46898;DHT22;32646;50.958;6.258;2023-02-18T16:11:02;9.90;99.90
46898;DHT22;32646;50.958;6.258;2023-02-18T16:13:29;9.80;99.90
46898;DHT22;32646;50.958;6.258;2023-02-18T16:15:57;9.80;99.90
46898;DHT22;32646;50.958;6.258;2023-02-18T16:18:30;9.90;99.90
46898;DHT22;32646;50.958;6.258;2023-02-18T16:23:59;9.90;99.90
46898;DHT22;32646;50.958;6.258;2023-02-18T16:29:13;10.00;99.90
46898;DHT22;32646;50.958;6.258;2023-02-18T16:31:41;9.90;99.90
46898;DHT22;32646;50.958;6.258;2023-02-18T16:34:08;9.90;99.90
46898;DHT22;32646;50.958;6.258;2023-02-18T16:36:34;9.90;99.90
46898;DHT22;32646;50.958;6.258;2023-02-18T16:39:01;9.90;99.90
46898;DHT22;32646;50.958;6.258;2023-02-18T16:41:28;9.90;99.90
46898;DHT22;32646;50.958;6.258;2023-02-18T16:43:54;9.90;99.90
46898;DHT22;32646;50.958;6.258;2023-02-18T16:46:22;9.80;99.90
46898;DHT22;32646;50.958;6.258;2023-02-18T16:48:51;9.90;99.90
46898;DHT22;32646;50.958;6.258;2023-02-18T16:51:24;9.90;99.90
46898;DHT22;32646;50.958;6.258;2023-02-18T16:53:51;9.90;99.90
46898;DHT22;32646;50.958;6.258;2023-02-18T16:56:20;9.90;99.90
46898;DHT22;32646;50.958;6.258;2023-02-18T16:58:47;9.90;99.90
46898;DHT22;32646;50.958;6.258;2023-02-18T17:01:27;9.80;99.90
46898;DHT22;32646;50.958;6.258;2023-02-18T17:03:55;9.80;99.90
46898;DHT22;32646;50.958;6.258;2023-02-18T17:06:22;9.70;99.90
46898;DHT22;32646;50.958;6.258;2023-02-18T17:08:49;9.70;99.90
46898;DHT22;32646;50.958;6.258;2023-02-18T17:11:22;9.70;99.90
46898;DHT22;32646;50.958;6.258;2023-02-18T17:13:49;9.70;99.90
46898;DHT22;32646;50.958;6.258;2023-02-18T17:16:17;9.70;99.90
46898;DHT22;32646;50.958;6.258;2023-02-18T17:18:44;9.70;99.90
46898;DHT22;32646;50.958;6.258;2023-02-18T17:21:25;9.70;99.90
46898;DHT22;32646;50.958;6.258;2023-02-18T17:23:52;9.70;99.90
46898;DHT22;32646;50.958;6.258;2023-02-18T17:26:22;9.70;99.90
46898;DHT22;32646;50.958;6.258;2023-02-18T17:28:50;9.70;99.90
46898;DHT22;32646;50.958;6.258;2023-02-18T17:31:28;9.70;99.90
46898;DHT22;32646;50.958;6.258;2023-02-18T17:34:00;9.70;99.90
46898;DHT22;32646;50.958;6.258;2023-02-18T17:36:29;9.70;99.90
46898;DHT22;32646;50.958;6.258;2023-02-18T17:38:56;9.70;99.90
46898;DHT22;32646;50.958;6.258;2023-02-18T17:41:23;9.70;99.90
46898;DHT22;32646;50.958;6.258;2023-02-18T17:43:49;9.70;99.90
46898;DHT22;32646;50.958;6.258;2023-02-18T17:46:17;9.70;99.90
46898;DHT22;32646;50.958;6.258;2023-02-18T17:48:45;9.70;99.90
46898;DHT22;32646;50.958;6.258;2023-02-18T17:51:26;9.70;99.90
46898;DHT22;32646;50.958;6.258;2023-02-18T17:53:53;9.70;99.90
46898;DHT22;32646;50.958;6.258;2023-02-18T17:56:20;9.70;99.90
46898;DHT22;32646;50.958;6.258;2023-02-18T17:58:47;9.70;99.90
46898;DHT22;32646;50.958;6.258;2023-02-18T18:01:14;9.80;99.90
46898;DHT22;32646;50.958;6.258;2023-02-18T18:03:41;9.80;99.90
46898;DHT22;32646;50.958;6.258;2023-02-18T18:06:18;9.70;99.90
46898;DHT22;32646;50.958;6.258;2023-02-18T18:08:47;9.70;99.90
46898;DHT22;32646;50.958;6.258;2023-02-18T18:11:21;9.70;99.90
46898;DHT22;32646;50.958;6.258;2023-02-18T18:13:48;9.70;99.90
46898;DHT22;32646;50.958;6.258;2023-02-18T18:16:16;9.80;99.90
46898;DHT22;32646;50.958;6.258;2023-02-18T18:18:43;9.80;99.90
46898;DHT22;32646;50.958;6.258;2023-02-18T18:21:33;9.80;99.90
46898;DHT22;32646;50.958;6.258;2023-02-18T18:24:01;9.70;99.90